createdAt,value
2018-08-30T00:00:43.953Z,101116.45
2018-08-30T00:01:49.336Z,101123.83
2018-08-30T00:02:54.814Z,101127.34
2018-08-30T00:04:00.292Z,101127.34
2018-08-30T00:05:06.044Z,101115.72
2018-08-30T00:06:11.480Z,101118.87
2018-08-30T00:07:16.972Z,101118.04
2018-08-30T00:08:22.446Z,101118.47
2018-08-30T00:09:27.928Z,101123.20
2018-08-30T00:10:33.612Z,101122.48
2018-08-30T00:11:39.102Z,101123.42
2018-08-30T00:12:44.664Z,101134.10
2018-08-30T00:13:50.159Z,101130.87
2018-08-30T00:14:55.606Z,101133.45
2018-08-30T00:16:01.017Z,101138.61
2018-08-30T00:17:06.674Z,101136.13
2018-08-30T00:18:12.116Z,101140.83
2018-08-30T00:19:17.633Z,101139.48
2018-08-30T00:20:23.197Z,101144.91
2018-08-30T00:21:28.834Z,101147.39
2018-08-30T00:22:34.297Z,101148.73
2018-08-30T00:23:39.755Z,101154.28
2018-08-30T00:24:45.149Z,101155.56
2018-08-30T00:25:50.624Z,101155.66
2018-08-30T00:26:56.080Z,101158.66
2018-08-30T00:28:01.581Z,101160.73
2018-08-30T00:29:07.089Z,101159.84
2018-08-30T00:30:12.677Z,101159.53
2018-08-30T00:31:18.181Z,101162.44
2018-08-30T00:32:23.626Z,101159.60
2018-08-30T00:33:29.029Z,101164.45
2018-08-30T00:34:34.452Z,101160.95
2018-08-30T00:35:39.904Z,101163.62
2018-08-30T00:36:45.345Z,101165.34
2018-08-30T00:37:50.933Z,101163.67
2018-08-30T00:38:56.393Z,101167.49
2018-08-30T00:40:02.895Z,101164.91
2018-08-30T00:41:08.426Z,101165.69
2018-08-30T00:42:13.908Z,101169.88
2018-08-30T00:43:19.397Z,101164.25
2018-08-30T00:44:24.857Z,101165.80
2018-08-30T00:45:30.349Z,101166.01
2018-08-30T00:46:35.859Z,101163.67
2018-08-30T00:47:45.311Z,101166.36
2018-08-30T00:48:50.751Z,101166.88
2018-08-30T00:49:56.228Z,101166.47
2018-08-30T00:51:01.692Z,101171.63
2018-08-30T00:52:07.222Z,101175.51
2018-08-30T00:53:12.665Z,101175.23
2018-08-30T00:54:18.234Z,101176.94
2018-08-30T00:55:23.680Z,101174.41
2018-08-30T00:56:29.204Z,101174.73
2018-08-30T00:57:34.664Z,101177.20
2018-08-30T00:58:40.080Z,101180.98
2018-08-30T00:59:45.585Z,101182.64
2018-08-30T01:00:51.024Z,101177.83
2018-08-30T01:01:56.904Z,101181.08
2018-08-30T01:03:02.393Z,101178.17
2018-08-30T01:04:07.853Z,101182.66
2018-08-30T01:05:13.307Z,101182.61
2018-08-30T01:06:18.791Z,101186.41
2018-08-30T01:07:24.255Z,101183.50
2018-08-30T01:08:29.762Z,101189.45
2018-08-30T01:09:35.271Z,101188.56
2018-08-30T01:10:40.760Z,101190.73
2018-08-30T01:11:46.289Z,101191.20
2018-08-30T01:12:53.779Z,101188.11
2018-08-30T01:13:59.262Z,101197.95
2018-08-30T01:15:04.748Z,101194.72
2018-08-30T01:16:10.233Z,101196.82
2018-08-30T01:17:15.648Z,101195.39
2018-08-30T01:18:21.181Z,101192.30
2018-08-30T01:19:26.757Z,101194.61
2018-08-30T01:20:32.183Z,101196.82
2018-08-30T01:21:37.591Z,101197.60
2018-08-30T01:22:43.104Z,101196.58
2018-08-30T01:23:48.662Z,101198.48
2018-08-30T01:24:54.056Z,101196.69
2018-08-30T01:25:59.545Z,101197.04
2018-08-30T01:27:05.114Z,101194.30
2018-08-30T01:28:10.548Z,101197.20
2018-08-30T01:29:16.061Z,101197.66
2018-08-30T01:30:21.533Z,101200.30
2018-08-30T01:31:27.014Z,101199.10
2018-08-30T01:32:32.609Z,101195.17
2018-08-30T01:33:38.054Z,101201.17
2018-08-30T01:34:43.990Z,101198.59
2018-08-30T01:35:49.505Z,101200.30
2018-08-30T01:36:54.937Z,101201.31
2018-08-30T01:38:00.324Z,101209.67
2018-08-30T01:39:06.791Z,101201.00
2018-08-30T01:40:12.329Z,101201.09
2018-08-30T01:41:17.704Z,101203.72
2018-08-30T01:42:23.262Z,101209.72
2018-08-30T01:43:28.805Z,101212.63
2018-08-30T01:44:34.208Z,101206.25
2018-08-30T01:45:39.785Z,101201.47
2018-08-30T01:46:45.229Z,101209.56
2018-08-30T01:47:50.838Z,101205.19
2018-08-30T01:48:56.301Z,101195.84
2018-08-30T01:50:01.751Z,101198.83
2018-08-30T01:51:07.394Z,101200.02
2018-08-30T01:52:13.125Z,101197.48
2018-08-30T01:53:18.653Z,101198.27
2018-08-30T01:54:24.049Z,101196.52
2018-08-30T01:55:29.476Z,101203.38
2018-08-30T01:56:34.928Z,101201.12
2018-08-30T01:57:40.320Z,101207.53
2018-08-30T01:58:45.775Z,101201.53
2018-08-30T01:59:51.224Z,101209.50
2018-08-30T02:00:56.726Z,101206.81
2018-08-30T02:02:02.308Z,101212.91
2018-08-30T02:03:07.752Z,101213.20
2018-08-30T02:04:13.225Z,101207.20
2018-08-30T02:05:18.754Z,101208.92
2018-08-30T02:06:24.152Z,101205.05
2018-08-30T02:07:29.625Z,101207.72
2018-08-30T02:08:35.089Z,101206.85
2018-08-30T02:09:40.502Z,101204.01
2018-08-30T02:10:46.457Z,101211.98
2018-08-30T02:11:51.901Z,101209.23
2018-08-30T02:12:57.391Z,101211.03
2018-08-30T02:14:02.846Z,101204.44
2018-08-30T02:15:08.293Z,101205.05
2018-08-30T02:16:13.708Z,101211.19
2018-08-30T02:17:19.260Z,101200.45
2018-08-30T02:18:24.721Z,101214.50
2018-08-30T02:19:30.161Z,101213.88
2018-08-30T02:20:35.640Z,101214.16
2018-08-30T02:21:41.021Z,101220.05
2018-08-30T02:22:46.440Z,101216.17
2018-08-30T02:23:51.969Z,101212.34
2018-08-30T02:24:57.377Z,101211.20
2018-08-30T02:26:02.814Z,101209.45
2018-08-30T02:27:08.229Z,101216.92
2018-08-30T02:28:13.688Z,101210.52
2018-08-30T02:29:19.142Z,101215.95
2018-08-30T02:30:24.583Z,101209.91
2018-08-30T02:31:30.029Z,101211.47
2018-08-30T02:32:35.476Z,101210.22
2018-08-30T02:33:41.149Z,101214.88
2018-08-30T02:34:46.560Z,101213.05
2018-08-30T02:35:51.990Z,101206.13
2018-08-30T02:36:57.465Z,101207.75
2018-08-30T02:38:03.348Z,101210.47
2018-08-30T02:39:09.776Z,101211.25
2018-08-30T02:40:15.269Z,101208.10
2018-08-30T02:41:20.677Z,101207.64
2018-08-30T02:42:26.094Z,101207.97
2018-08-30T02:43:31.613Z,101204.03
2018-08-30T02:44:37.076Z,101209.61
2018-08-30T02:45:42.836Z,101210.03
2018-08-30T02:46:48.242Z,101211.79
2018-08-30T02:47:53.649Z,101209.34
2018-08-30T02:48:59.246Z,101215.29
2018-08-30T02:50:04.837Z,101214.78
2018-08-30T02:51:10.299Z,101216.50
2018-08-30T02:52:15.747Z,101216.84
2018-08-30T02:53:21.146Z,101219.44
2018-08-30T02:54:26.565Z,101220.67
2018-08-30T02:55:32.204Z,101220.78
2018-08-30T02:56:37.648Z,101222.48
2018-08-30T02:57:43.059Z,101216.95
2018-08-30T02:58:48.517Z,101227.34
2018-08-30T02:59:53.920Z,101223.09
2018-08-30T03:00:59.837Z,101228.63
2018-08-30T03:02:05.504Z,101227.80
2018-08-30T03:03:10.961Z,101227.29
2018-08-30T03:04:16.384Z,101229.09
2018-08-30T03:05:21.905Z,101235.73
2018-08-30T03:06:27.385Z,101230.95
2018-08-30T03:07:32.926Z,101234.55
2018-08-30T03:08:38.429Z,101239.72
2018-08-30T03:09:43.864Z,101236.55
2018-08-30T03:10:49.304Z,101234.84
2018-08-30T03:11:54.931Z,101235.72
2018-08-30T03:13:00.342Z,101236.50
2018-08-30T03:14:05.864Z,101235.27
2018-08-30T03:15:14.889Z,101235.27
2018-08-30T03:16:20.435Z,101236.18
2018-08-30T03:17:25.897Z,101235.57
2018-08-30T03:18:31.792Z,101235.21
2018-08-30T03:19:37.196Z,101238.62
2018-08-30T03:20:42.617Z,101234.33
2018-08-30T03:21:48.159Z,101236.96
2018-08-30T03:22:53.658Z,101237.28
2018-08-30T03:23:59.511Z,101240.00
2018-08-30T03:25:05.281Z,101236.50
2018-08-30T03:26:10.801Z,101240.73
2018-08-30T03:27:16.345Z,101232.12
2018-08-30T03:28:21.748Z,101233.92
2018-08-30T03:29:27.176Z,101229.53
2018-08-30T03:30:32.715Z,101233.97
2018-08-30T03:31:38.101Z,101233.92
2018-08-30T03:32:43.532Z,101239.09
2018-08-30T03:33:49.100Z,101238.19
2018-08-30T03:34:55.568Z,101244.86
2018-08-30T03:36:01.005Z,101241.55
2018-08-30T03:37:08.102Z,101236.38
2018-08-30T03:38:13.949Z,101243.25
2018-08-30T03:39:19.414Z,101243.14
2018-08-30T03:40:24.869Z,101250.48
2018-08-30T03:41:30.292Z,101247.07
2018-08-30T03:42:35.813Z,101250.72
2018-08-30T03:43:41.239Z,101248.97
2018-08-30T03:44:46.637Z,101248.52
2018-08-30T03:45:52.584Z,101254.87
2018-08-30T03:46:58.137Z,101253.17
2018-08-30T03:48:03.532Z,101253.30
2018-08-30T03:49:09.031Z,101254.19
2018-08-30T03:50:14.621Z,101261.66
2018-08-30T03:51:20.265Z,101265.53
2018-08-30T03:52:25.800Z,101262.53
2018-08-30T03:53:31.252Z,101261.61
2018-08-30T03:54:36.969Z,101261.98
2018-08-30T03:55:42.492Z,101266.31
2018-08-30T03:56:48.041Z,101265.48
2018-08-30T03:57:53.473Z,101267.20
2018-08-30T03:58:59.233Z,101270.64
2018-08-30T04:00:04.808Z,101267.09
2018-08-30T04:01:10.388Z,101271.43
2018-08-30T04:02:15.923Z,101265.98
2018-08-30T04:03:21.301Z,101268.66
2018-08-30T04:04:26.849Z,101271.16
2018-08-30T04:05:32.312Z,101274.29
2018-08-30T04:06:37.747Z,101269.95
2018-08-30T04:07:43.309Z,101274.29
2018-08-30T04:08:48.813Z,101278.16
2018-08-30T04:09:54.265Z,101273.83
2018-08-30T04:10:59.724Z,101281.58
2018-08-30T04:12:05.147Z,101277.57
2018-08-30T04:13:10.658Z,101281.77
2018-08-30T04:14:16.070Z,101282.23
2018-08-30T04:15:22.044Z,101288.17
2018-08-30T04:16:27.473Z,101279.27
2018-08-30T04:17:32.992Z,101281.48
2018-08-30T04:18:38.409Z,101288.73
2018-08-30T04:19:44.119Z,101286.15
2018-08-30T04:20:49.674Z,101286.94
2018-08-30T04:21:55.127Z,101282.17
2018-08-30T04:23:00.583Z,101289.09
2018-08-30T04:24:07.913Z,101283.80
2018-08-30T04:25:13.397Z,101288.96
2018-08-30T04:26:19.104Z,101292.36
2018-08-30T04:27:24.558Z,101292.28
2018-08-30T04:28:29.972Z,101285.55
2018-08-30T04:29:35.386Z,101293.15
2018-08-30T04:30:40.849Z,101290.66
2018-08-30T04:31:46.328Z,101290.11
2018-08-30T04:32:51.740Z,101288.08
2018-08-30T04:33:57.148Z,101294.03
2018-08-30T04:35:02.621Z,101291.50
2018-08-30T04:36:08.038Z,101293.15
2018-08-30T04:37:13.549Z,101295.32
2018-08-30T04:38:18.969Z,101289.78
2018-08-30T04:39:24.392Z,101298.27
2018-08-30T04:40:29.840Z,101300.99
2018-08-30T04:41:35.286Z,101296.14
2018-08-30T04:42:40.780Z,101303.16
2018-08-30T04:43:46.320Z,101303.44
2018-08-30T04:44:51.786Z,101305.56
2018-08-30T04:45:57.225Z,101302.19
2018-08-30T04:47:02.769Z,101306.11
2018-08-30T04:48:08.222Z,101306.62
2018-08-30T04:49:13.710Z,101305.69
2018-08-30T04:50:19.239Z,101310.06
2018-08-30T04:51:24.641Z,101307.53
2018-08-30T04:52:30.285Z,101315.77
2018-08-30T04:53:35.727Z,101320.48
2018-08-30T04:54:41.157Z,101313.62
2018-08-30T04:55:46.611Z,101313.38
2018-08-30T04:56:52.064Z,101317.99
2018-08-30T04:57:57.500Z,101317.11
2018-08-30T04:59:02.925Z,101321.31
2018-08-30T05:00:08.459Z,101324.81
2018-08-30T05:01:13.913Z,101324.91
2018-08-30T05:02:19.428Z,101322.32
2018-08-30T05:03:24.896Z,101327.86
2018-08-30T05:04:30.420Z,101327.63
2018-08-30T05:05:35.898Z,101329.88
2018-08-30T05:06:41.271Z,101326.06
2018-08-30T05:07:46.922Z,101331.68
2018-08-30T05:08:52.348Z,101329.43
2018-08-30T05:09:57.900Z,101334.67
2018-08-30T05:11:03.355Z,101334.13
2018-08-30T05:12:08.746Z,101338.41
2018-08-30T05:13:14.253Z,101338.31
2018-08-30T05:14:19.714Z,101340.44
2018-08-30T05:15:25.464Z,101337.52
2018-08-30T05:16:31.241Z,101345.22
2018-08-30T05:17:36.692Z,101345.22
2018-08-30T05:18:42.337Z,101349.02
2018-08-30T05:19:47.816Z,101350.86
2018-08-30T05:20:53.245Z,101347.45
2018-08-30T05:21:59.090Z,101348.41
2018-08-30T05:23:04.662Z,101348.23
2018-08-30T05:24:10.024Z,101348.36
2018-08-30T05:25:15.472Z,101347.91
2018-08-30T05:26:20.920Z,101353.39
2018-08-30T05:27:26.497Z,101349.14
2018-08-30T05:28:32.350Z,101350.16
2018-08-30T05:29:37.858Z,101347.62
2018-08-30T05:30:43.257Z,101353.95
2018-08-30T05:31:48.656Z,101349.29
2018-08-30T05:32:54.346Z,101348.00
2018-08-30T05:33:59.846Z,101347.58
2018-08-30T05:35:05.362Z,101352.37
2018-08-30T05:36:10.837Z,101356.15
2018-08-30T05:37:16.314Z,101353.57
2018-08-30T05:38:22.179Z,101355.32
2018-08-30T05:39:27.703Z,101353.95
2018-08-30T05:40:33.214Z,101349.19
2018-08-30T05:41:38.786Z,101356.67
2018-08-30T05:42:44.323Z,101353.59
2018-08-30T05:43:50.200Z,101360.33
2018-08-30T05:44:55.632Z,101358.11
2018-08-30T05:46:01.170Z,101360.69
2018-08-30T05:47:06.654Z,101360.64
2018-08-30T05:48:12.073Z,101359.73
2018-08-30T05:49:17.554Z,101359.69
2018-08-30T05:50:23.172Z,101360.09
2018-08-30T05:51:28.608Z,101365.22
2018-08-30T05:52:34.276Z,101363.38
2018-08-30T05:53:39.782Z,101360.66
2018-08-30T05:54:45.627Z,101367.34
2018-08-30T05:55:51.075Z,101367.84
2018-08-30T05:56:56.636Z,101363.02
2018-08-30T05:58:01.989Z,101370.16
2018-08-30T05:59:07.645Z,101369.89
2018-08-30T06:00:13.421Z,101368.15
2018-08-30T06:01:19.077Z,101370.35
2018-08-30T06:02:24.513Z,101373.39
2018-08-30T06:03:29.980Z,101374.23
2018-08-30T06:04:35.381Z,101370.69
2018-08-30T06:05:41.263Z,101377.05
2018-08-30T06:06:46.784Z,101377.28
2018-08-30T06:07:52.247Z,101377.33
2018-08-30T06:08:57.826Z,101377.73
2018-08-30T06:10:03.237Z,101376.35
2018-08-30T06:11:08.708Z,101378.38
2018-08-30T06:12:14.230Z,101381.58
2018-08-30T06:13:19.843Z,101383.28
2018-08-30T06:14:25.408Z,101382.13
2018-08-30T06:15:31.012Z,101382.54
2018-08-30T06:16:36.680Z,101382.54
2018-08-30T06:17:42.104Z,101386.32
2018-08-30T06:18:47.593Z,101386.97
2018-08-30T06:19:53.242Z,101389.51
2018-08-30T06:20:58.680Z,101390.25
2018-08-30T06:22:04.156Z,101391.03
2018-08-30T06:23:09.581Z,101392.64
2018-08-30T06:24:15.269Z,101394.81
2018-08-30T06:25:20.681Z,101403.63
2018-08-30T06:26:26.232Z,101401.09
2018-08-30T06:27:31.709Z,101402.28
2018-08-30T06:28:37.175Z,101402.84
2018-08-30T06:29:42.613Z,101404.82
2018-08-30T06:30:48.096Z,101403.77
2018-08-30T06:31:53.576Z,101407.31
2018-08-30T06:32:59.078Z,101409.89
2018-08-30T06:34:04.543Z,101408.20
2018-08-30T06:35:10.032Z,101420.19
2018-08-30T06:36:15.656Z,101407.41
2018-08-30T06:37:21.371Z,101413.31
2018-08-30T06:38:26.972Z,101412.86
2018-08-30T06:39:32.388Z,101415.44
2018-08-30T06:40:38.124Z,101416.64
2018-08-30T06:41:43.793Z,101419.59
2018-08-30T06:42:49.216Z,101420.05
2018-08-30T06:43:54.742Z,101413.69
2018-08-30T06:45:00.158Z,101418.81
2018-08-30T06:46:06.193Z,101420.43
2018-08-30T06:47:11.595Z,101420.05
2018-08-30T06:48:17.085Z,101419.55
2018-08-30T06:49:22.585Z,101425.12
2018-08-30T06:50:27.999Z,101421.91
2018-08-30T06:51:33.442Z,101418.48
2018-08-30T06:52:38.841Z,101421.48
2018-08-30T06:53:44.630Z,101423.78
2018-08-30T06:54:50.098Z,101421.20
2018-08-30T06:55:55.568Z,101423.33
2018-08-30T06:57:01.131Z,101418.89
2018-08-30T06:58:06.570Z,101424.44
2018-08-30T06:59:12.237Z,101426.29
2018-08-30T07:00:17.723Z,101428.32
2018-08-30T07:01:23.189Z,101425.96
2018-08-30T07:02:29.088Z,101428.55
2018-08-30T07:03:34.537Z,101428.50
2018-08-30T07:04:39.995Z,101433.34
2018-08-30T07:05:45.565Z,101429.97
2018-08-30T07:06:51.470Z,101434.59
2018-08-30T07:07:57.011Z,101437.95
2018-08-30T07:09:02.640Z,101433.84
2018-08-30T07:10:08.136Z,101439.42
2018-08-30T07:11:13.657Z,101441.36
2018-08-30T07:12:19.188Z,101437.28
2018-08-30T07:13:24.603Z,101448.62
2018-08-30T07:14:30.069Z,101444.53
2018-08-30T07:15:35.568Z,101443.23
2018-08-30T07:16:41.368Z,101451.67
2018-08-30T07:17:46.905Z,101449.69
2018-08-30T07:18:52.606Z,101449.69
2018-08-30T07:19:58.118Z,101444.66
2018-08-30T07:21:03.671Z,101448.02
2018-08-30T07:22:09.141Z,101449.48
2018-08-30T07:23:14.765Z,101452.75
2018-08-30T07:24:20.214Z,101448.17
2018-08-30T07:25:25.721Z,101448.28
2018-08-30T07:26:31.169Z,101452.44
2018-08-30T07:27:36.645Z,101464.03
2018-08-30T07:28:42.331Z,101458.64
2018-08-30T07:29:47.548Z,101459.75
2018-08-30T07:30:53.016Z,101456.59
2018-08-30T07:31:58.893Z,101454.73
2018-08-30T07:33:04.427Z,101457.21
2018-08-30T07:34:09.891Z,101461.25
2018-08-30T07:35:15.405Z,101464.26
2018-08-30T07:36:20.846Z,101462.19
2018-08-30T07:37:26.241Z,101460.44
2018-08-30T07:38:31.633Z,101471.81
2018-08-30T07:39:37.068Z,101465.56
2018-08-30T07:40:42.616Z,101471.81
2018-08-30T07:41:48.144Z,101473.45
2018-08-30T07:42:53.724Z,101476.57
2018-08-30T07:43:59.188Z,101475.69
2018-08-30T07:45:04.636Z,101471.87
2018-08-30T07:46:10.269Z,101473.52
2018-08-30T07:47:15.731Z,101475.94
2018-08-30T07:48:21.184Z,101479.72
2018-08-30T07:49:26.560Z,101477.44
2018-08-30T07:50:31.995Z,101480.95
2018-08-30T07:51:37.423Z,101483.49
2018-08-30T07:52:42.884Z,101480.95
2018-08-30T07:53:48.368Z,101475.20
2018-08-30T07:54:53.841Z,101481.99
2018-08-30T07:55:59.283Z,101491.13
2018-08-30T07:57:04.796Z,101491.32
2018-08-30T07:58:10.754Z,101489.80
2018-08-30T07:59:16.164Z,101493.48
2018-08-30T08:00:21.613Z,101493.02
2018-08-30T08:01:27.028Z,101494.95
2018-08-30T08:02:32.484Z,101496.70
2018-08-30T08:03:37.958Z,101494.00
2018-08-30T08:04:43.380Z,101493.69
2018-08-30T08:05:48.985Z,101494.09
2018-08-30T08:06:54.372Z,101493.98
2018-08-30T08:07:59.768Z,101500.59
2018-08-30T08:09:07.549Z,101503.50
2018-08-30T08:10:13.006Z,101509.92
2018-08-30T08:11:18.464Z,101505.00
2018-08-30T08:12:23.861Z,101500.72
2018-08-30T08:13:29.291Z,101498.98
2018-08-30T08:14:34.808Z,101503.81
2018-08-30T08:15:40.283Z,101504.94
2018-08-30T08:16:45.668Z,101504.90
2018-08-30T08:17:51.117Z,101502.30
2018-08-30T08:18:56.589Z,101508.20
2018-08-30T08:20:02.036Z,101500.41
2018-08-30T08:21:07.474Z,101506.97
2018-08-30T08:22:12.854Z,101508.04
2018-08-30T08:23:18.284Z,101508.33
2018-08-30T08:24:23.829Z,101509.31
2018-08-30T08:25:29.854Z,101512.75
2018-08-30T08:26:35.557Z,101514.41
2018-08-30T08:27:40.960Z,101512.64
2018-08-30T08:28:46.410Z,101509.27
2018-08-30T08:29:51.870Z,101512.94
2018-08-30T08:30:57.320Z,101505.25
2018-08-30T08:32:02.717Z,101516.41
2018-08-30T08:33:08.141Z,101513.33
2018-08-30T08:34:13.604Z,101513.92
2018-08-30T08:35:19.009Z,101507.95
2018-08-30T08:36:24.483Z,101512.52
2018-08-30T08:37:29.964Z,101507.30
2018-08-30T08:38:35.389Z,101513.80
2018-08-30T08:39:40.862Z,101515.84
2018-08-30T08:40:46.295Z,101514.47
2018-08-30T08:41:51.753Z,101519.62
2018-08-30T08:42:57.221Z,101518.66
2018-08-30T08:44:02.717Z,101515.66
2018-08-30T08:45:08.349Z,101521.39
2018-08-30T08:46:13.853Z,101517.89
2018-08-30T08:47:19.286Z,101525.31
2018-08-30T08:48:24.822Z,101530.31
2018-08-30T08:49:30.236Z,101529.55
2018-08-30T08:50:35.612Z,101531.28
2018-08-30T08:51:41.685Z,101528.78
2018-08-30T08:52:47.152Z,101522.69
2018-08-30T08:53:52.697Z,101523.30
2018-08-30T08:54:58.097Z,101524.16
2018-08-30T08:56:03.508Z,101529.22
2018-08-30T08:57:08.994Z,101532.17
2018-08-30T08:58:14.430Z,101529.73
2018-08-30T08:59:20.023Z,101536.14
2018-08-30T09:00:25.468Z,101540.33
2018-08-30T09:01:31.093Z,101539.27
2018-08-30T09:02:36.346Z,101544.23
2018-08-30T09:03:42.080Z,101540.42
2018-08-30T09:04:47.604Z,101538.36
2018-08-30T09:05:53.076Z,101543.87
2018-08-30T09:06:58.580Z,101543.53
2018-08-30T09:08:04.115Z,101542.26
2018-08-30T09:09:11.825Z,101539.03
2018-08-30T09:10:17.240Z,101547.39
2018-08-30T09:11:22.727Z,101539.52
2018-08-30T09:12:28.165Z,101541.09
2018-08-30T09:13:33.566Z,101546.23
2018-08-30T09:14:38.949Z,101538.30
2018-08-30T09:15:44.360Z,101538.93
2018-08-30T09:16:49.812Z,101545.58
2018-08-30T09:17:55.338Z,101539.97
2018-08-30T09:19:00.917Z,101545.36
2018-08-30T09:20:07.304Z,101546.92
2018-08-30T09:21:12.797Z,101549.89
2018-08-30T09:22:18.264Z,101548.97
2018-08-30T09:23:23.657Z,101546.13
2018-08-30T09:24:29.245Z,101546.37
2018-08-30T09:25:34.831Z,101555.01
2018-08-30T09:26:40.294Z,101550.03
2018-08-30T09:27:45.684Z,101547.89
2018-08-30T09:28:51.076Z,101545.02
2018-08-30T09:29:57.093Z,101547.14
2018-08-30T09:31:03.004Z,101549.50
2018-08-30T09:32:08.527Z,101541.23
2018-08-30T09:33:13.916Z,101550.12
2018-08-30T09:34:19.410Z,101552.19
2018-08-30T09:35:24.925Z,101547.53
2018-08-30T09:36:30.352Z,101552.34
2018-08-30T09:37:35.929Z,101555.63
2018-08-30T09:38:41.397Z,101548.73
2018-08-30T09:39:46.817Z,101553.46
2018-08-30T09:40:52.292Z,101552.30
2018-08-30T09:41:57.768Z,101559.90
2018-08-30T09:43:03.598Z,101551.34
2018-08-30T09:44:11.038Z,101555.77
2018-08-30T09:45:16.575Z,101548.92
2018-08-30T09:46:21.984Z,101549.14
2018-08-30T09:47:27.641Z,101555.52
2018-08-30T09:48:33.292Z,101546.03
2018-08-30T09:49:38.733Z,101547.97
2018-08-30T09:50:44.169Z,101545.64
2018-08-30T09:51:49.605Z,101546.58
2018-08-30T09:52:55.287Z,101541.67
2018-08-30T09:54:00.741Z,101544.88
2018-08-30T09:55:06.546Z,101547.70
2018-08-30T09:56:12.012Z,101544.55
2018-08-30T09:57:17.789Z,101553.98
2018-08-30T09:58:23.121Z,101551.16
2018-08-30T09:59:28.525Z,101551.77
2018-08-30T10:00:39.132Z,101545.04
2018-08-30T10:01:49.776Z,101550.60
2018-08-30T10:02:55.201Z,101547.14
2018-08-30T10:04:01.074Z,101544.53
2018-08-30T10:05:06.681Z,101544.88
2018-08-30T10:06:12.394Z,101547.38
2018-08-30T10:07:17.925Z,101546.31
2018-08-30T10:08:23.385Z,101551.23
2018-08-30T10:09:28.936Z,101556.68
2018-08-30T10:10:34.567Z,101548.40
2018-08-30T10:11:40.452Z,101550.73
2018-08-30T10:12:47.891Z,101558.44
2018-08-30T10:13:53.461Z,101553.26
2018-08-30T10:14:58.936Z,101549.11
2018-08-30T10:16:04.537Z,101559.08
2018-08-30T10:17:10.010Z,101552.54
2018-08-30T10:18:15.536Z,101550.95
2018-08-30T10:19:20.937Z,101550.42
2018-08-30T10:20:26.369Z,101548.03
2018-08-30T10:21:31.855Z,101551.47
2018-08-30T10:22:37.280Z,101548.13
2018-08-30T10:23:42.893Z,101555.30
2018-08-30T10:24:48.362Z,101548.75
2018-08-30T10:25:53.975Z,101544.77
2018-08-30T10:26:59.654Z,101546.69
2018-08-30T10:28:05.374Z,101545.27
2018-08-30T10:29:11.012Z,101549.56
2018-08-30T10:30:16.405Z,101551.45
2018-08-30T10:31:21.840Z,101556.63
2018-08-30T10:32:27.336Z,101558.12
2018-08-30T10:33:32.899Z,101548.09
2018-08-30T10:34:38.397Z,101548.42
2018-08-30T10:35:44.220Z,101549.02
2018-08-30T10:36:49.682Z,101549.29
2018-08-30T10:37:55.172Z,101565.53
2018-08-30T10:39:00.626Z,101576.73
2018-08-30T10:40:06.585Z,101572.66
2018-08-30T10:41:12.109Z,101576.56
2018-08-30T10:42:17.549Z,101571.56
2018-08-30T10:43:22.988Z,101576.02
2018-08-30T10:44:28.445Z,101575.07
2018-08-30T10:45:33.931Z,101578.84
2018-08-30T10:46:39.369Z,101577.11
2018-08-30T10:47:44.861Z,101577.91
2018-08-30T10:48:50.302Z,101582.45
2018-08-30T10:49:55.844Z,101575.13
2018-08-30T10:51:01.269Z,101572.70
2018-08-30T10:52:06.961Z,101571.20
2018-08-30T10:53:12.406Z,101575.02
2018-08-30T10:54:17.979Z,101577.96
2018-08-30T10:55:23.481Z,101581.91
2018-08-30T10:56:28.977Z,101575.14
2018-08-30T10:57:34.668Z,101587.23
2018-08-30T10:58:40.183Z,101587.44
2018-08-30T10:59:45.882Z,101583.87
2018-08-30T11:00:51.461Z,101588.43
2018-08-30T11:01:57.075Z,101585.83
2018-08-30T11:03:02.742Z,101591.22
2018-08-30T11:04:08.535Z,101592.38
2018-08-30T11:05:14.094Z,101589.01
2018-08-30T11:06:19.705Z,101591.89
2018-08-30T11:07:25.269Z,101590.25
2018-08-30T11:08:30.720Z,101583.83
2018-08-30T11:09:36.140Z,101592.68
2018-08-30T11:10:41.641Z,101592.84
2018-08-30T11:11:47.128Z,101587.87
2018-08-30T11:12:52.697Z,101595.80
2018-08-30T11:13:58.105Z,101592.73
2018-08-30T11:15:03.596Z,101590.23
2018-08-30T11:16:09.096Z,101589.23
2018-08-30T11:17:14.654Z,101593.47
2018-08-30T11:18:20.111Z,101595.08
2018-08-30T11:19:25.570Z,101596.24
2018-08-30T11:20:31.107Z,101588.94
2018-08-30T11:21:36.492Z,101596.52
2018-08-30T11:22:41.920Z,101598.00
2018-08-30T11:23:47.528Z,101601.73
2018-08-30T11:24:52.896Z,101604.33
2018-08-30T11:25:58.373Z,101603.95
2018-08-30T11:27:03.994Z,101602.42
2018-08-30T11:28:09.594Z,101605.80
2018-08-30T11:29:15.161Z,101615.30
2018-08-30T11:30:20.710Z,101613.70
2018-08-30T11:31:26.211Z,101623.28
2018-08-30T11:32:31.637Z,101622.20
2018-08-30T11:33:37.136Z,101620.78
2018-08-30T11:34:42.605Z,101624.59
2018-08-30T11:35:48.044Z,101625.70
2018-08-30T11:36:53.650Z,101620.77
2018-08-30T11:37:59.057Z,101624.20
2018-08-30T11:39:05.685Z,101625.04
2018-08-30T11:40:11.267Z,101627.38
2018-08-30T11:41:16.844Z,101623.61
2018-08-30T11:42:22.234Z,101631.86
2018-08-30T11:43:27.867Z,101629.55
2018-08-30T11:44:33.164Z,101627.42
2018-08-30T11:45:38.758Z,101624.91
2018-08-30T11:46:44.221Z,101626.72
2018-08-30T11:47:49.686Z,101637.16
2018-08-30T11:48:55.177Z,101632.17
2018-08-30T11:50:00.704Z,101627.37
2018-08-30T11:51:06.191Z,101633.06
2018-08-30T11:52:11.842Z,101633.75
2018-08-30T11:53:17.451Z,101631.50
2018-08-30T11:54:23.384Z,101638.31
2018-08-30T11:55:28.940Z,101633.17
2018-08-30T11:56:34.391Z,101643.75
2018-08-30T11:57:39.856Z,101645.14
2018-08-30T11:58:45.238Z,101640.83
2018-08-30T11:59:50.776Z,101646.69
2018-08-30T12:00:56.358Z,101640.27
2018-08-30T12:02:01.667Z,101641.77
2018-08-30T12:03:07.375Z,101643.36
2018-08-30T12:04:12.907Z,101647.25
2018-08-30T12:05:18.572Z,101640.84
2018-08-30T12:06:24.109Z,101647.90
2018-08-30T12:07:29.687Z,101643.81
2018-08-30T12:08:35.204Z,101647.37
2018-08-30T12:09:40.698Z,101645.11
2018-08-30T12:10:46.478Z,101647.24
2018-08-30T12:11:52.010Z,101646.34
2018-08-30T12:12:57.869Z,101648.06
2018-08-30T12:14:03.726Z,101648.48
2018-08-30T12:15:09.249Z,101644.96
2018-08-30T12:16:14.669Z,101646.27
2018-08-30T12:17:20.169Z,101649.55
2018-08-30T12:18:26.117Z,101649.88
2018-08-30T12:19:31.579Z,101654.02
2018-08-30T12:20:37.021Z,101650.36
2018-08-30T12:21:42.485Z,101652.24
2018-08-30T12:22:47.901Z,101646.05
2018-08-30T12:23:53.276Z,101651.40
2018-08-30T12:24:58.854Z,101651.41
2018-08-30T12:26:04.344Z,101657.63
2018-08-30T12:27:09.800Z,101656.39
2018-08-30T12:28:15.430Z,101663.97